Time;durP1;ratioP1;P1;durP2;ratioP2;P2;SDS_P1;SDS_P2;PMS_P1;PMS_P2;Temp;Humidity;BMP_temperature;BMP_pressure;BME280_temperature;BME280_humidity;BME280_pressure;Samples;Min_cycle;Max_cycle;Signal;HPM_P1;HPM_P2
2021/11/08 00:02:02;;;;;;;35.13;24.45;;;;;;;;;;5036241;28;20029;-40
2021/11/08 00:04:27;;;;;;;31.73;24.30;;;;;;;;;;5032751;28;20025;-40
2021/11/08 00:06:54;;;;;;;34.78;25.20;;;;;;;;;;5036190;28;20034;-42
2021/11/08 00:09:20;;;;;;;24.35;21.13;;;;;;;;;;5032864;28;20028;-39
2021/11/08 00:11:45;;;;;;;27.98;15.70;;;;;;;;;;5034353;28;20401;-44
2021/11/08 00:14:15;;;;;;;21.75;16.13;;;;;;;;;;5033863;28;20156;-40
2021/11/08 00:16:56;;;;;;;25.40;19.08;;;;;;;;;;5033894;28;20072;-39
2021/11/08 00:22:06;;;;;;;30.55;21.75;;;;;;;;;;5037904;28;20102;-41
2021/11/08 00:24:32;;;;;;;25.30;20.10;;;;;;;;;;5036113;28;20529;-40
2021/11/08 00:26:59;;;;;;;22.08;17.70;;;;;;;;;;5031176;28;20178;-38
2021/11/08 00:29:24;;;;;;;22.38;16.75;;;;;;;;;;5037332;28;20031;-38
2021/11/08 00:31:50;;;;;;;18.83;16.48;;;;;;;;;;5033464;28;20021;-39
2021/11/08 00:34:15;;;;;;;20.02;15.20;;;;;;;;;;5034008;28;20453;-41
2021/11/08 00:36:41;;;;;;;29.02;15.45;;;;;;;;;;5031760;28;20041;-39
2021/11/08 00:39:06;;;;;;;23.02;16.92;;;;;;;;;;5031148;28;20037;-39
2021/11/08 00:41:33;;;;;;;17.75;15.60;;;;;;;;;;5037455;28;20028;-38
2021/11/08 00:43:58;;;;;;;18.60;13.75;;;;;;;;;;5035570;28;20059;-39
2021/11/08 00:46:24;;;;;;;13.18;11.65;;;;;;;;;;5031611;28;20663;-39
2021/11/08 00:48:50;;;;;;;21.48;15.60;;;;;;;;;;5034347;28;20049;-41
2021/11/08 00:51:18;;;;;;;25.75;15.07;;;;;;;;;;5033332;28;20560;-40
2021/11/08 00:53:44;;;;;;;13.93;12.43;;;;;;;;;;5031364;28;20124;-41
2021/11/08 00:56:15;;;;;;;16.50;12.65;;;;;;;;;;5033401;28;20025;-39
2021/11/08 00:58:42;;;;;;;12.10;9.90;;;;;;;;;;5035277;28;20104;-38
2021/11/08 01:01:10;;;;;;;15.23;9.07;;;;;;;;;;5030854;28;20083;-40
2021/11/08 01:03:39;;;;;;;10.35;8.27;;;;;;;;;;5032832;28;20427;-41
2021/11/08 01:06:05;;;;;;;16.05;10.48;;;;;;;;;;5029649;28;20108;-41
2021/11/08 01:08:31;;;;;;;16.23;10.48;;;;;;;;;;5031600;28;20103;-38
2021/11/08 01:10:56;;;;;;;21.73;12.10;;;;;;;;;;5033795;28;20088;-41
2021/11/08 01:13:24;;;;;;;11.30;9.82;;;;;;;;;;5029946;28;20112;-40
2021/11/08 01:15:49;;;;;;;9.88;8.82;;;;;;;;;;5034906;28;20025;-40
2021/11/08 01:18:14;;;;;;;15.73;13.75;;;;;;;;;;5033483;28;20472;-38
2021/11/08 01:20:46;;;;;;;17.00;15.23;;;;;;;;;;5032500;28;20500;-42
2021/11/08 01:23:13;;;;;;;15.10;13.45;;;;;;;;;;5034889;28;20031;-39
2021/11/08 01:25:39;;;;;;;22.55;15.25;;;;;;;;;;5033065;28;20021;-43
2021/11/08 01:28:05;;;;;;;14.90;13.13;;;;;;;;;;5035209;28;20022;-41
2021/11/08 01:30:31;;;;;;;18.35;13.40;;;;;;;;;;5032561;28;20044;-39
2021/11/08 01:33:03;;;;;;;14.48;11.85;;;;;;;;;;5031911;28;20753;-38
2021/11/08 01:35:34;;;;;;;13.60;9.68;;;;;;;;;;5033793;28;20029;-40
2021/11/08 01:38:06;;;;;;;14.75;9.88;;;;;;;;;;5036255;28;20029;-38
2021/11/08 01:40:32;;;;;;;23.73;11.02;;;;;;;;;;5036531;28;20033;-37
2021/11/08 01:42:57;;;;;;;14.88;10.18;;;;;;;;;;5035358;28;20417;-40
2021/11/08 01:45:23;;;;;;;15.00;10.10;;;;;;;;;;5032515;28;20025;-37
2021/11/08 01:47:48;;;;;;;13.95;10.65;;;;;;;;;;5032886;28;20481;-38
2021/11/08 01:50:13;;;;;;;17.83;9.05;;;;;;;;;;5031477;28;20065;-37
2021/11/08 01:52:39;;;;;;;10.20;7.57;;;;;;;;;;5035205;28;20438;-39
2021/11/08 01:55:04;;;;;;;11.43;7.85;;;;;;;;;;5032622;28;20029;-39
2021/11/08 01:57:31;;;;;;;12.10;7.13;;;;;;;;;;5034426;28;20044;-37
2021/11/08 01:59:59;;;;;;;9.02;7.03;;;;;;;;;;5032271;28;20089;-40
2021/11/08 02:02:25;;;;;;;17.55;8.50;;;;;;;;;;5033185;28;20037;-38
2021/11/08 02:04:50;;;;;;;10.65;8.50;;;;;;;;;;5033344;28;20021;-41
2021/11/08 02:07:15;;;;;;;13.23;7.03;;;;;;;;;;5035254;28;20013;-43
2021/11/08 02:09:41;;;;;;;12.90;8.38;;;;;;;;;;5033628;28;20014;-37
2021/11/08 02:12:09;;;;;;;10.40;8.30;;;;;;;;;;5034670;28;20448;-41
2021/11/08 02:14:37;;;;;;;12.65;9.48;;;;;;;;;;5035549;28;20121;-39
2021/11/08 02:17:02;;;;;;;12.18;10.95;;;;;;;;;;5033411;28;20014;-38
2021/11/08 02:19:28;;;;;;;11.23;9.65;;;;;;;;;;5035410;28;20587;-39
2021/11/08 02:21:55;;;;;;;17.05;11.88;;;;;;;;;;5035139;28;20118;-41
2021/11/08 02:24:24;;;;;;;18.48;9.70;;;;;;;;;;5032678;28;20104;-39
2021/11/08 02:26:49;;;;;;;20.48;12.00;;;;;;;;;;5032294;28;20523;-42
2021/11/08 02:29:18;;;;;;;35.22;19.13;;;;;;;;;;5033746;28;20018;-37
2021/11/08 02:31:43;;;;;;;45.67;18.95;;;;;;;;;;5033959;28;20028;-38
2021/11/08 02:34:09;;;;;;;30.33;14.65;;;;;;;;;;5037634;28;20036;-40
2021/11/08 02:36:41;;;;;;;26.63;13.93;;;;;;;;;;5033835;28;20642;-41
2021/11/08 02:39:06;;;;;;;26.58;14.88;;;;;;;;;;5035133;28;20551;-40
2021/11/08 02:41:32;;;;;;;46.05;15.43;;;;;;;;;;5034544;28;20525;-39
2021/11/08 02:43:58;;;;;;;23.77;10.40;;;;;;;;;;5034774;28;20025;-42
2021/11/08 02:46:26;;;;;;;9.98;5.68;;;;;;;;;;5031696;28;20875;-44
2021/11/08 02:48:52;;;;;;;10.05;6.88;;;;;;;;;;5036148;28;20141;-41
2021/11/08 02:51:29;;;;;;;22.23;10.00;;;;;;;;;;5033984;28;20103;-38
2021/11/08 02:54:00;;;;;;;22.65;9.95;;;;;;;;;;5036824;28;20533;-39
2021/11/08 02:56:26;;;;;;;16.50;11.68;;;;;;;;;;5035023;28;20041;-38
2021/11/08 02:58:52;;;;;;;31.67;16.88;;;;;;;;;;5037624;28;20025;-39
2021/11/08 03:01:20;;;;;;;31.20;16.00;;;;;;;;;;5036763;28;20025;-37
2021/11/08 03:03:49;;;;;;;31.27;11.52;;;;;;;;;;5038143;28;20135;-42
2021/11/08 03:06:22;;;;;;;20.17;11.52;;;;;;;;;;5038787;28;20029;-40
2021/11/08 03:08:49;;;;;;;22.13;10.68;;;;;;;;;;5039709;28;20010;-44
2021/11/08 03:11:14;;;;;;;28.17;11.10;;;;;;;;;;5038207;28;20052;-41
2021/11/08 03:13:45;;;;;;;26.98;11.68;;;;;;;;;;5037590;28;20106;-38
2021/11/08 03:19:12;;;;;;;14.05;8.52;;;;;;;;;;5036083;28;20053;-44
2021/11/08 03:21:38;;;;;;;12.02;7.05;;;;;;;;;;5036062;28;20025;-37
2021/11/08 03:24:05;;;;;;;12.40;5.53;;;;;;;;;;5034873;28;20446;-37
2021/11/08 03:26:46;;;;;;;10.52;4.80;;;;;;;;;;5040567;28;20025;-37
2021/11/08 03:29:12;;;;;;;12.18;7.15;;;;;;;;;;5038429;28;20021;-41
2021/11/08 03:31:39;;;;;;;11.45;6.53;;;;;;;;;;5037946;28;20030;-37
2021/11/08 03:34:07;;;;;;;17.45;6.72;;;;;;;;;;5035354;28;20117;-38
2021/11/08 03:36:32;;;;;;;12.90;8.07;;;;;;;;;;5036218;28;20029;-38
2021/11/08 03:38:58;;;;;;;15.23;7.13;;;;;;;;;;5037319;28;20048;-38
2021/11/08 03:41:23;;;;;;;14.90;8.82;;;;;;;;;;5035379;28;20022;-42
2021/11/08 03:43:49;;;;;;;20.42;6.30;;;;;;;;;;5036581;28;20029;-40
2021/11/08 03:46:14;;;;;;;9.95;6.05;;;;;;;;;;5039415;28;20036;-37
2021/11/08 03:48:41;;;;;;;10.27;6.03;;;;;;;;;;5036372;28;20048;-37
2021/11/08 03:51:08;;;;;;;7.10;4.35;;;;;;;;;;5038431;28;20691;-39
2021/11/08 03:53:33;;;;;;;13.48;4.97;;;;;;;;;;5036269;28;20060;-37
2021/11/08 03:55:59;;;;;;;11.23;3.97;;;;;;;;;;5036938;28;20140;-38
2021/11/08 03:58:24;;;;;;;12.10;7.13;;;;;;;;;;5039407;28;20535;-38
2021/11/08 04:00:50;;;;;;;12.35;5.72;;;;;;;;;;5036655;28;20017;-39
2021/11/08 04:03:15;;;;;;;17.40;5.32;;;;;;;;;;5035922;28;20548;-38
2021/11/08 04:05:41;;;;;;;5.47;4.70;;;;;;;;;;5036913;28;20025;-38
2021/11/08 04:08:09;;;;;;;9.73;4.93;;;;;;;;;;5036326;28;20072;-40
2021/11/08 04:10:39;;;;;;;9.23;5.88;;;;;;;;;;5037149;28;20496;-37
2021/11/08 04:13:04;;;;;;;14.75;6.90;;;;;;;;;;5039606;28;20033;-37
2021/11/08 04:15:40;;;;;;;7.40;4.93;;;;;;;;;;5033533;28;20022;-37
2021/11/08 04:18:07;;;;;;;5.78;3.65;;;;;;;;;;5035083;28;20334;-37
2021/11/08 04:20:33;;;;;;;4.40;3.35;;;;;;;;;;5035287;28;20026;-38
2021/11/08 04:22:58;;;;;;;6.13;3.65;;;;;;;;;;5032249;28;20035;-38
2021/11/08 04:25:25;;;;;;;14.63;3.92;;;;;;;;;;5036979;28;20059;-38
2021/11/08 04:27:51;;;;;;;5.82;3.83;;;;;;;;;;5036910;28;20021;-38
2021/11/08 04:30:17;;;;;;;17.75;4.43;;;;;;;;;;5039372;28;20041;-38
2021/11/08 04:33:05;;;;;;;8.00;4.78;;;;;;;;;;5035994;28;20017;-37
2021/11/08 04:35:44;;;;;;;6.15;3.03;;;;;;;;;;5036637;28;20026;-40
2021/11/08 04:52:16;;;;;;;6.88;2.47;;;;;;;;;;5042494;28;20032;-41
2021/11/08 04:54:59;;;;;;;3.80;2.15;;;;;;;;;;5035438;28;20366;-43
2021/11/08 05:24:30;;;;;;;5.35;1.15;;;;;;;;;;5036184;28;20059;-38
2021/11/08 05:32:21;;;;;;;4.70;1.58;;;;;;;;;;5036894;28;20028;-37
2021/11/08 05:34:46;;;;;;;1.83;0.75;;;;;;;;;;5035552;28;20037;-37
2021/11/08 05:37:11;;;;;;;1.25;0.63;;;;;;;;;;5034554;28;20029;-37
2021/11/08 05:39:37;;;;;;;3.45;0.50;;;;;;;;;;5035108;28;20020;-37
2021/11/08 05:42:04;;;;;;;8.00;0.95;;;;;;;;;;5037345;28;20071;-38
2021/11/08 05:44:30;;;;;;;0.90;0.22;;;;;;;;;;5034858;28;20029;-37
2021/11/08 05:46:55;;;;;;;3.72;1.08;;;;;;;;;;5035583;28;20053;-37
2021/11/08 05:49:21;;;;;;;1.55;0.55;;;;;;;;;;5035831;28;20505;-37
2021/11/08 05:51:46;;;;;;;1.80;0.93;;;;;;;;;;5032915;28;20029;-39
2021/11/08 05:54:11;;;;;;;1.25;0.30;;;;;;;;;;5032089;28;20028;-37
2021/11/08 05:59:57;;;;;;;1.70;0.93;;;;;;;;;;5038474;28;20392;-37
2021/11/08 06:51:19;;;;;;;7.22;2.63;;;;;;;;;;5036738;28;20540;-37
2021/11/08 06:53:46;;;;;;;6.63;3.95;;;;;;;;;;5037495;28;20032;-38
2021/11/08 06:56:12;;;;;;;4.80;3.00;;;;;;;;;;5036705;28;20033;-37
2021/11/08 06:58:38;;;;;;;4.45;3.05;;;;;;;;;;5037205;28;20381;-37
2021/11/08 07:01:04;;;;;;;6.93;3.88;;;;;;;;;;5041361;28;20392;-38
2021/11/08 07:03:29;;;;;;;13.20;6.30;;;;;;;;;;5036511;28;20039;-37
2021/11/08 07:05:54;;;;;;;13.40;6.63;;;;;;;;;;5038674;28;20018;-38
2021/11/08 07:08:20;;;;;;;5.65;4.20;;;;;;;;;;5039155;28;20023;-38
2021/11/08 07:10:45;;;;;;;28.60;13.45;;;;;;;;;;5039065;28;20014;-38
2021/11/08 07:13:11;;;;;;;26.52;11.23;;;;;;;;;;5038571;28;20025;-38
2021/11/08 07:15:37;;;;;;;17.48;7.43;;;;;;;;;;5036183;28;20112;-36
2021/11/08 07:18:02;;;;;;;24.42;6.47;;;;;;;;;;5036288;28;20060;-37
2021/11/08 07:20:28;;;;;;;8.93;6.38;;;;;;;;;;5037995;28;20025;-36
2021/11/08 07:22:54;;;;;;;7.60;5.85;;;;;;;;;;5040101;28;20511;-37
2021/11/08 07:25:19;;;;;;;10.32;6.50;;;;;;;;;;5039605;28;20144;-37
2021/11/08 07:27:45;;;;;;;40.70;36.10;;;;;;;;;;5038492;28;20071;-38
2021/11/08 07:30:11;;;;;;;326.50;280.70;;;;;;;;;;5038076;28;20017;-37
2021/11/08 07:32:37;;;;;;;283.08;240.75;;;;;;;;;;5034153;28;20033;-37
2021/11/08 07:35:02;;;;;;;84.45;74.85;;;;;;;;;;5038808;28;20022;-37
2021/11/08 07:37:28;;;;;;;22.98;13.38;;;;;;;;;;5036228;28;20029;-37
2021/11/08 07:39:53;;;;;;;21.38;11.50;;;;;;;;;;5040063;28;20075;-40
2021/11/08 07:42:19;;;;;;;18.77;8.68;;;;;;;;;;5040688;28;20380;-37
2021/11/08 07:44:44;;;;;;;12.65;10.73;;;;;;;;;;5042972;28;20232;-37
2021/11/08 07:47:10;;;;;;;105.25;93.72;;;;;;;;;;5041131;28;20025;-37
2021/11/08 07:49:35;;;;;;;177.98;154.38;;;;;;;;;;5037605;28;20042;-38
2021/11/08 07:52:00;;;;;;;151.10;126.68;;;;;;;;;;5038666;28;20029;-37
2021/11/08 07:54:30;;;;;;;69.68;60.30;;;;;;;;;;5034212;28;20746;-36
2021/11/08 07:56:56;;;;;;;25.73;18.52;;;;;;;;;;5037699;28;20423;-38
2021/11/08 07:59:21;;;;;;;13.60;11.00;;;;;;;;;;5033765;28;20017;-39
2021/11/08 08:01:49;;;;;;;17.02;8.15;;;;;;;;;;5037274;28;20697;-38
2021/11/08 08:04:15;;;;;;;27.98;9.73;;;;;;;;;;5038000;28;20029;-40
2021/11/08 08:06:41;;;;;;;19.77;6.78;;;;;;;;;;5034964;28;20104;-39
2021/11/08 08:09:06;;;;;;;5.13;4.07;;;;;;;;;;5037168;28;20603;-39
2021/11/08 08:11:32;;;;;;;15.02;7.65;;;;;;;;;;5034342;28;20021;-38
2021/11/08 08:13:57;;;;;;;5.18;3.28;;;;;;;;;;5033591;28;20175;-38
2021/11/08 08:16:23;;;;;;;9.55;3.35;;;;;;;;;;5035132;28;20108;-39
2021/11/08 08:18:49;;;;;;;10.60;3.58;;;;;;;;;;5036055;28;20021;-37
2021/11/08 08:21:15;;;;;;;6.97;3.75;;;;;;;;;;5034095;28;20493;-38
2021/11/08 08:23:41;;;;;;;4.93;3.20;;;;;;;;;;5037883;28;20020;-39
2021/11/08 08:26:06;;;;;;;16.23;7.43;;;;;;;;;;5036111;28;20025;-52
2021/11/08 08:28:32;;;;;;;4.72;4.03;;;;;;;;;;5036809;28;20032;-44
2021/11/08 08:30:58;;;;;;;8.23;5.35;;;;;;;;;;5036025;28;20078;-43
2021/11/08 08:33:23;;;;;;;12.02;6.15;;;;;;;;;;5033943;28;20022;-45
2021/11/08 08:35:49;;;;;;;5.07;2.97;;;;;;;;;;5035392;28;20029;-46
2021/11/08 08:38:17;;;;;;;3.03;2.08;;;;;;;;;;5033157;28;20029;-48
2021/11/08 08:40:43;;;;;;;8.57;2.65;;;;;;;;;;5034586;28;20024;-49
2021/11/08 08:43:09;;;;;;;9.27;2.35;;;;;;;;;;5036586;28;20032;-46
2021/11/08 08:45:35;;;;;;;1.38;0.95;;;;;;;;;;5034568;28;20633;-45
2021/11/08 08:48:00;;;;;;;2.58;1.30;;;;;;;;;;5036435;28;20120;-45
2021/11/08 08:50:26;;;;;;;3.05;2.17;;;;;;;;;;5035182;28;20528;-46
2021/11/08 08:52:51;;;;;;;3.60;2.13;;;;;;;;;;5035791;28;20033;-48
2021/11/08 08:55:17;;;;;;;43.35;38.83;;;;;;;;;;5035833;28;20029;-43
2021/11/08 08:57:43;;;;;;;14.48;11.63;;;;;;;;;;5034046;28;20810;-44
2021/11/08 09:00:09;;;;;;;4.28;2.13;;;;;;;;;;5033309;28;20021;-43
2021/11/08 09:02:35;;;;;;;9.10;1.52;;;;;;;;;;5035010;28;20022;-44
2021/11/08 09:05:00;;;;;;;9.55;2.58;;;;;;;;;;5030253;28;20029;-43
2021/11/08 09:07:25;;;;;;;9.13;2.38;;;;;;;;;;5030593;28;20013;-46
2021/11/08 09:09:51;;;;;;;7.65;2.90;;;;;;;;;;5030738;28;20052;-48
2021/11/08 09:12:16;;;;;;;5.82;1.70;;;;;;;;;;5028981;28;20060;-43
2021/11/08 09:14:41;;;;;;;4.78;1.23;;;;;;;;;;5032330;28;20038;-44
2021/11/08 09:17:07;;;;;;;6.93;2.08;;;;;;;;;;5034025;28;20029;-45
2021/11/08 09:19:33;;;;;;;9.13;2.90;;;;;;;;;;5032005;28;20104;-47
2021/11/08 09:21:58;;;;;;;35.78;32.08;;;;;;;;;;5032769;28;20556;-43
2021/11/08 09:24:23;;;;;;;9.52;6.13;;;;;;;;;;5033026;28;20029;-43
2021/11/08 09:26:49;;;;;;;20.10;12.13;;;;;;;;;;5032859;28;20875;-46
2021/11/08 09:29:15;;;;;;;4.05;3.13;;;;;;;;;;5034106;28;20428;-44
2021/11/08 09:31:40;;;;;;;2.63;1.85;;;;;;;;;;5033804;28;20017;-44
2021/11/08 09:34:09;;;;;;;10.70;2.63;;;;;;;;;;5034979;28;20017;-46
2021/11/08 09:36:35;;;;;;;8.50;3.42;;;;;;;;;;5035678;28;20071;-46
2021/11/08 09:39:02;;;;;;;7.15;2.95;;;;;;;;;;5032949;28;20579;-49
2021/11/08 09:41:29;;;;;;;15.45;9.90;;;;;;;;;;5034507;28;20087;-46
2021/11/08 09:43:56;;;;;;;13.35;9.15;;;;;;;;;;5032504;28;20139;-45
2021/11/08 09:46:23;;;;;;;3.95;2.90;;;;;;;;;;5033068;28;20013;-48
2021/11/08 09:48:49;;;;;;;11.00;2.72;;;;;;;;;;5032458;28;20085;-44
2021/11/08 09:51:15;;;;;;;11.52;5.05;;;;;;;;;;5036875;28;20021;-47
2021/11/08 09:53:41;;;;;;;12.75;5.50;;;;;;;;;;5033964;28;20039;-45
2021/11/08 09:56:07;;;;;;;14.05;6.35;;;;;;;;;;5032054;28;20056;-43
2021/11/08 09:58:33;;;;;;;9.02;4.50;;;;;;;;;;5030595;28;20068;-42
2021/11/08 10:00:59;;;;;;;10.50;3.67;;;;;;;;;;5027322;28;20029;-43
2021/11/08 10:03:26;;;;;;;21.05;5.13;;;;;;;;;;5031572;28;20132;-42
2021/11/08 10:05:55;;;;;;;8.60;2.72;;;;;;;;;;5030106;28;20671;-45
2021/11/08 10:08:23;;;;;;;6.63;2.35;;;;;;;;;;5034688;28;20025;-46
2021/11/08 10:10:49;;;;;;;10.63;3.05;;;;;;;;;;5037985;28;20021;-47
2021/11/08 10:13:16;;;;;;;12.18;3.45;;;;;;;;;;5039153;28;20025;-45
2021/11/08 10:15:43;;;;;;;22.83;3.55;;;;;;;;;;5041824;28;20029;-47
2021/11/08 10:18:08;;;;;;;8.70;4.82;;;;;;;;;;5036537;28;20085;-43
2021/11/08 10:20:38;;;;;;;8.93;2.65;;;;;;;;;;5037854;28;20546;-45
2021/11/08 10:23:05;;;;;;;8.85;1.60;;;;;;;;;;5041980;28;20026;-43
2021/11/08 10:25:32;;;;;;;5.03;2.45;;;;;;;;;;5042914;28;20131;-44
2021/11/08 10:27:57;;;;;;;5.45;3.83;;;;;;;;;;5043159;28;20100;-44
2021/11/08 10:30:24;;;;;;;4.07;1.45;;;;;;;;;;5041933;28;20137;-48
2021/11/08 10:33:06;;;;;;;7.05;2.75;;;;;;;;;;5039170;28;20026;-47
2021/11/08 10:35:38;;;;;;;6.10;2.92;;;;;;;;;;5042597;28;20057;-43
2021/11/08 10:38:07;;;;;;;3.45;2.55;;;;;;;;;;5041745;28;20072;-45
2021/11/08 10:40:40;;;;;;;13.43;3.20;;;;;;;;;;5038625;28;20022;-47
2021/11/08 10:43:05;;;;;;;7.68;1.70;;;;;;;;;;5039990;28;20067;-46
2021/11/08 10:45:30;;;;;;;11.05;2.53;;;;;;;;;;5040624;28;20396;-49
2021/11/08 10:48:05;;;;;;;8.23;2.55;;;;;;;;;;5039584;28;20648;-44
2021/11/08 10:50:40;;;;;;;2.75;1.50;;;;;;;;;;5038493;28;20041;-45
2021/11/08 10:53:06;;;;;;;2.88;2.15;;;;;;;;;;5039704;28;20033;-43
2021/11/08 10:55:32;;;;;;;4.25;1.27;;;;;;;;;;5040854;28;20025;-49
2021/11/08 10:58:15;;;;;;;4.65;1.40;;;;;;;;;;5040684;28;20053;-48
2021/11/08 11:00:48;;;;;;;3.65;1.63;;;;;;;;;;5040176;28;20029;-47
2021/11/08 11:03:16;;;;;;;3.13;1.13;;;;;;;;;;5038464;28;20029;-46
2021/11/08 11:05:43;;;;;;;1.55;0.93;;;;;;;;;;5040965;28;20025;-46
2021/11/08 11:08:14;;;;;;;5.05;1.95;;;;;;;;;;5039011;28;20024;-45
2021/11/08 11:10:39;;;;;;;;;;;;;;;;;;5047187;28;20017;-44
2021/11/08 11:13:08;;;;;;;6.13;2.33;;;;;;;;;;5048146;28;20434;-47
2021/11/08 11:15:39;;;;;;;3.35;1.80;;;;;;;;;;5045877;28;20036;-43
2021/11/08 11:18:05;;;;;;;3.78;1.15;;;;;;;;;;5043748;28;20033;-45
2021/11/08 11:20:34;;;;;;;8.65;2.92;;;;;;;;;;5036273;28;20017;-45
2021/11/08 11:23:04;;;;;;;20.80;6.15;;;;;;;;;;5036812;28;20540;-45
2021/11/08 11:25:31;;;;;;;20.80;11.10;;;;;;;;;;5040692;28;20025;-43
2021/11/08 11:28:00;;;;;;;26.88;15.82;;;;;;;;;;5037401;28;20021;-48
2021/11/08 11:30:27;;;;;;;18.27;10.82;;;;;;;;;;5040224;28;20153;-41
2021/11/08 11:32:57;;;;;;;13.88;5.95;;;;;;;;;;5035859;28;20033;-42
2021/11/08 11:35:23;;;;;;;13.10;4.82;;;;;;;;;;5039423;28;20013;-45
2021/11/08 11:37:56;;;;;;;8.23;3.28;;;;;;;;;;5037600;28;20441;-44
2021/11/08 11:40:23;;;;;;;9.52;2.03;;;;;;;;;;5039405;28;20025;-42
2021/11/08 11:42:50;;;;;;;4.07;2.08;;;;;;;;;;5042336;28;20036;-47
2021/11/08 11:45:15;;;;;;;8.52;2.47;;;;;;;;;;5036769;28;20073;-46
2021/11/08 11:47:41;;;;;;;10.20;7.10;;;;;;;;;;5040515;28;20031;-44
2021/11/08 11:50:07;;;;;;;12.68;4.05;;;;;;;;;;5035288;28;20056;-45
2021/11/08 11:52:33;;;;;;;6.55;2.47;;;;;;;;;;5040024;28;20512;-47
2021/11/08 11:54:59;;;;;;;7.85;2.03;;;;;;;;;;5037874;28;20017;-51
2021/11/08 11:57:24;;;;;;;2.72;1.55;;;;;;;;;;5038477;28;20030;-47
2021/11/08 11:59:49;;;;;;;12.18;2.25;;;;;;;;;;5035271;28;20456;-48
2021/11/08 12:02:15;;;;;;;11.25;1.83;;;;;;;;;;5035485;28;20021;-46
2021/11/08 12:04:41;;;;;;;3.53;2.03;;;;;;;;;;5036193;28;20025;-48
2021/11/08 12:07:08;;;;;;;6.20;3.00;;;;;;;;;;5036430;28;20024;-49
2021/11/08 12:09:35;;;;;;;12.80;6.15;;;;;;;;;;5037268;28;20099;-50
2021/11/08 12:12:01;;;;;;;9.32;5.45;;;;;;;;;;5037648;28;20536;-47
2021/11/08 12:14:33;;;;;;;7.80;4.38;;;;;;;;;;5039401;28;20119;-45
2021/11/08 12:17:02;;;;;;;7.60;3.65;;;;;;;;;;5033857;28;20021;-45
2021/11/08 12:19:31;;;;;;;4.65;2.75;;;;;;;;;;5037929;28;20539;-47
2021/11/08 12:21:56;;;;;;;8.23;3.72;;;;;;;;;;5036860;28;20037;-43
2021/11/08 12:24:23;;;;;;;5.95;3.05;;;;;;;;;;5031055;28;20029;-44
2021/11/08 12:26:51;;;;;;;5.85;1.77;;;;;;;;;;5034181;28;20025;-44
2021/11/08 12:29:20;;;;;;;6.05;1.60;;;;;;;;;;5034447;28;20071;-44
2021/11/08 12:31:47;;;;;;;1.83;0.70;;;;;;;;;;5035425;28;20072;-50
2021/11/08 12:34:21;;;;;;;8.32;1.75;;;;;;;;;;5033771;28;20086;-43
2021/11/08 12:36:57;;;;;;;5.40;1.73;;;;;;;;;;5035149;28;20199;-49
2021/11/08 12:39:22;;;;;;;4.78;2.03;;;;;;;;;;5035983;28;20044;-46
2021/11/08 12:41:50;;;;;;;12.15;1.73;;;;;;;;;;5036935;28;20037;-45
2021/11/08 12:44:17;;;;;;;3.65;1.70;;;;;;;;;;5034284;28;20116;-46
2021/11/08 12:46:51;;;;;;;4.95;2.15;;;;;;;;;;5038873;28;20021;-48
2021/11/08 12:49:27;;;;;;;3.40;1.67;;;;;;;;;;5037439;28;20832;-44
2021/11/08 12:51:57;;;;;;;2.45;1.60;;;;;;;;;;5034130;28;20126;-49
2021/11/08 12:54:24;;;;;;;8.13;2.33;;;;;;;;;;5032758;28;20050;-49
2021/11/08 12:56:50;;;;;;;3.80;1.50;;;;;;;;;;5038501;28;20443;-46
2021/11/08 12:59:17;;;;;;;10.52;2.65;;;;;;;;;;5033347;28;20544;-45
2021/11/08 13:01:44;;;;;;;5.85;1.58;;;;;;;;;;5034995;28;20032;-46
2021/11/08 13:04:13;;;;;;;11.30;3.20;;;;;;;;;;5036638;28;20387;-51
2021/11/08 13:06:38;;;;;;;6.82;3.38;;;;;;;;;;5032066;28;20100;-48
2021/11/08 13:09:10;;;;;;;6.93;2.72;;;;;;;;;;5038268;28;20583;-46
2021/11/08 13:11:35;;;;;;;;;;;;;;;;;;5035087;28;20503;-46
2021/11/08 13:14:01;;;;;;;13.50;3.37;;;;;;;;;;5038746;28;19912;-44
2021/11/08 13:16:41;;;;;;;5.78;3.08;;;;;;;;;;5034486;28;20100;-44
2021/11/08 13:19:14;;;;;;;4.35;2.35;;;;;;;;;;5032927;28;20025;-44
2021/11/08 13:21:39;;;;;;;9.82;3.50;;;;;;;;;;5038513;28;20044;-47
2021/11/08 13:24:06;;;;;;;13.88;2.70;;;;;;;;;;5034952;28;20021;-48
2021/11/08 13:26:33;;;;;;;10.32;2.72;;;;;;;;;;5034804;28;20049;-46
2021/11/08 13:28:59;;;;;;;12.63;3.90;;;;;;;;;;5036488;28;20606;-48
2021/11/08 13:31:25;;;;;;;37.03;4.13;;;;;;;;;;5035809;28;20574;-47
2021/11/08 13:33:52;;;;;;;2.88;1.52;;;;;;;;;;5034924;28;20059;-44
2021/11/08 13:36:18;;;;;;;4.85;2.45;;;;;;;;;;5033041;28;20045;-44
2021/11/08 13:38:45;;;;;;;6.03;1.67;;;;;;;;;;5036537;28;20498;-52
2021/11/08 13:41:16;;;;;;;6.78;2.08;;;;;;;;;;5040281;28;20020;-45
2021/11/08 13:43:44;;;;;;;15.40;1.52;;;;;;;;;;5029567;28;20041;-47
2021/11/08 13:46:20;;;;;;;3.88;0.82;;;;;;;;;;5034506;28;20029;-47
2021/11/08 13:48:48;;;;;;;7.30;1.77;;;;;;;;;;5034594;28;20056;-47
2021/11/08 13:51:21;;;;;;;5.85;1.58;;;;;;;;;;5032899;28;20021;-44
2021/11/08 13:53:51;;;;;;;14.18;1.95;;;;;;;;;;5034051;28;20428;-48
2021/11/08 13:56:17;;;;;;;5.03;1.63;;;;;;;;;;5033685;28;20375;-48
2021/11/08 13:58:47;;;;;;;12.18;2.63;;;;;;;;;;5034764;28;20018;-47
2021/11/08 14:01:13;;;;;;;10.88;2.28;;;;;;;;;;5035702;28;20087;-48
2021/11/08 14:03:40;;;;;;;5.15;2.08;;;;;;;;;;5037538;28;20382;-43
2021/11/08 14:06:07;;;;;;;7.38;1.67;;;;;;;;;;5031947;28;20021;-50
2021/11/08 14:08:35;;;;;;;4.60;1.85;;;;;;;;;;5035408;28;20104;-43
2021/11/08 14:11:00;;;;;;;7.13;1.80;;;;;;;;;;5037485;28;20099;-44
2021/11/08 14:13:29;;;;;;;9.60;1.40;;;;;;;;;;5040150;28;20580;-48
2021/11/08 14:16:02;;;;;;;5.03;1.73;;;;;;;;;;5035197;28;20029;-50
2021/11/08 14:18:27;;;;;;;6.47;1.65;;;;;;;;;;5042861;28;20358;-46
2021/11/08 14:21:12;;;;;;;8.50;1.67;;;;;;;;;;5037646;28;20499;-44
2021/11/08 14:23:39;;;;;;;9.85;2.53;;;;;;;;;;5039754;28;20567;-43
2021/11/08 14:26:18;;;;;;;11.95;2.05;;;;;;;;;;5037059;28;20048;-49
2021/11/08 14:28:44;;;;;;;5.88;1.77;;;;;;;;;;5040208;28;20170;-48
2021/11/08 14:31:21;;;;;;;6.18;1.42;;;;;;;;;;5033481;28;20033;-47
2021/11/08 14:33:47;;;;;;;10.23;2.17;;;;;;;;;;5039565;28;20503;-48
2021/11/08 14:36:17;;;;;;;2.08;1.02;;;;;;;;;;5038481;28;20488;-47
2021/11/08 14:38:49;;;;;;;8.98;2.92;;;;;;;;;;5037149;28;20021;-50
2021/11/08 14:41:16;;;;;;;10.50;3.72;;;;;;;;;;5036197;28;20017;-47
2021/11/08 14:43:42;;;;;;;3.30;1.80;;;;;;;;;;5036207;28;20345;-47
2021/11/08 14:46:08;;;;;;;5.47;1.88;;;;;;;;;;5034440;28;20477;-47
2021/11/08 14:48:36;;;;;;;17.55;4.68;;;;;;;;;;5032312;28;20088;-47
2021/11/08 14:51:04;;;;;;;10.73;4.57;;;;;;;;;;5035102;28;20025;-47
2021/11/08 14:53:34;;;;;;;11.00;3.55;;;;;;;;;;5035959;28;20073;-51
2021/11/08 14:56:00;;;;;;;6.75;2.20;;;;;;;;;;5035315;28;20549;-46
2021/11/08 14:58:25;;;;;;;1.88;1.15;;;;;;;;;;5035617;28;20025;-46
2021/11/08 15:00:51;;;;;;;7.57;2.78;;;;;;;;;;5037830;28;20025;-46
2021/11/08 15:03:19;;;;;;;8.15;3.38;;;;;;;;;;5037554;28;20404;-50
2021/11/08 15:05:45;;;;;;;8.65;2.35;;;;;;;;;;5038495;28;20040;-46
2021/11/08 15:08:16;;;;;;;7.00;4.05;;;;;;;;;;5036176;28;20043;-45
2021/11/08 15:10:44;;;;;;;8.83;3.63;;;;;;;;;;5039737;28;20033;-46
2021/11/08 15:13:10;;;;;;;7.35;5.15;;;;;;;;;;5037561;28;20068;-50
2021/11/08 15:15:39;;;;;;;15.63;12.55;;;;;;;;;;5033788;28;20373;-49
2021/11/08 15:18:10;;;;;;;15.80;7.30;;;;;;;;;;5037868;28;20017;-47
2021/11/08 15:20:44;;;;;;;10.65;5.85;;;;;;;;;;5037308;28;20025;-50
2021/11/08 15:23:11;;;;;;;16.58;6.65;;;;;;;;;;5039271;28;20515;-47
2021/11/08 15:25:43;;;;;;;8.40;4.53;;;;;;;;;;5035583;28;20060;-50
2021/11/08 15:28:08;;;;;;;;;;;;;;;;;;5039471;28;20492;-50
2021/11/08 15:30:38;;;;;;;9.75;2.63;;;;;;;;;;5037642;28;20011;-50
2021/11/08 15:33:08;;;;;;;13.65;4.07;;;;;;;;;;5036300;28;20029;-52
2021/11/08 15:35:38;;;;;;;6.53;4.47;;;;;;;;;;5036828;28;20497;-47
2021/11/08 15:38:08;;;;;;;13.60;2.83;;;;;;;;;;5040624;28;20174;-53
2021/11/08 15:40:34;;;;;;;20.77;2.60;;;;;;;;;;5037488;28;20433;-47
2021/11/08 15:43:03;;;;;;;5.97;2.38;;;;;;;;;;5039920;28;20029;-52
2021/11/08 15:45:28;;;;;;;22.30;4.95;;;;;;;;;;5035461;28;20029;-52
2021/11/08 15:47:54;;;;;;;25.23;22.98;;;;;;;;;;5036192;28;20051;-53
2021/11/08 15:50:19;;;;;;;45.67;40.88;;;;;;;;;;5038646;28;20049;-57
2021/11/08 15:52:45;;;;;;;20.17;8.38;;;;;;;;;;5037465;28;20017;-51
2021/11/08 15:55:10;;;;;;;25.25;17.05;;;;;;;;;;5036785;28;20022;-55
2021/11/08 15:57:35;;;;;;;31.90;23.50;;;;;;;;;;5040365;28;20028;-53
2021/11/08 16:00:01;;;;;;;46.20;32.78;;;;;;;;;;5039835;28;20051;-53
2021/11/08 16:02:28;;;;;;;86.78;58.13;;;;;;;;;;5042075;28;20096;-54
2021/11/08 16:04:53;;;;;;;36.83;20.02;;;;;;;;;;5037020;28;20074;-54
2021/11/08 16:07:19;;;;;;;30.15;17.50;;;;;;;;;;5037953;28;20022;-54
2021/11/08 16:09:44;;;;;;;29.25;26.58;;;;;;;;;;5039249;28;20028;-52
2021/11/08 16:12:10;;;;;;;10.43;6.15;;;;;;;;;;5038040;28;20029;-54
2021/11/08 16:14:35;;;;;;;42.03;8.65;;;;;;;;;;5039002;28;20013;-53
2021/11/08 16:17:00;;;;;;;14.55;4.15;;;;;;;;;;5039528;28;20021;-50
2021/11/08 16:19:25;;;;;;;12.95;6.60;;;;;;;;;;5037633;28;20024;-53